sensor_id;sensor_type;location;lat;lon;timestamp;P1;durP1;ratioP1;P2;durP2;ratioP2
68507;SDS011;55510;49.560;19.090;2024-01-27T01:39:09;9.45;;;0.90;;
68507;SDS011;55510;49.560;19.090;2024-01-27T01:42:11;7.38;;;0.60;;
68507;SDS011;55510;49.560;19.090;2024-01-27T01:45:12;2.97;;;0.63;;
68507;SDS011;55510;49.560;19.090;2024-01-27T01:48:13;4.75;;;1.15;;
68507;SDS011;55510;49.560;19.090;2024-01-27T01:51:13;4.63;;;0.67;;
68507;SDS011;55510;49.560;19.090;2024-01-27T01:54:14;5.28;;;0.75;;
68507;SDS011;55510;49.560;19.090;2024-01-27T01:57:15;3.40;;;0.43;;
68507;SDS011;55510;49.560;19.090;2024-01-27T02:00:17;6.55;;;0.52;;
68507;SDS011;55510;49.560;19.090;2024-01-27T02:03:18;10.77;;;2.33;;
68507;SDS011;55510;49.560;19.090;2024-01-27T02:06:19;5.97;;;1.00;;
68507;SDS011;55510;49.560;19.090;2024-01-27T02:09:19;5.10;;;0.32;;
68507;SDS011;55510;49.560;19.090;2024-01-27T02:12:20;3.60;;;0.30;;
68507;SDS011;55510;49.560;19.090;2024-01-27T02:15:21;7.97;;;0.50;;
68507;SDS011;55510;49.560;19.090;2024-01-27T02:18:22;5.28;;;0.63;;
68507;SDS011;55510;49.560;19.090;2024-01-27T02:21:22;4.97;;;1.00;;
68507;SDS011;55510;49.560;19.090;2024-01-27T02:24:23;3.43;;;0.40;;
68507;SDS011;55510;49.560;19.090;2024-01-27T02:27:24;6.88;;;0.30;;
68507;SDS011;55510;49.560;19.090;2024-01-27T02:30:25;5.13;;;0.50;;
68507;SDS011;55510;49.560;19.090;2024-01-27T02:33:25;4.37;;;0.40;;
68507;SDS011;55510;49.560;19.090;2024-01-27T02:36:26;7.17;;;0.87;;
68507;SDS011;55510;49.560;19.090;2024-01-27T02:39:27;2.70;;;0.60;;
68507;SDS011;55510;49.560;19.090;2024-01-27T02:42:27;2.00;;;0.20;;
68507;SDS011;55510;49.560;19.090;2024-01-27T02:45:28;4.57;;;0.40;;
68507;SDS011;55510;49.560;19.090;2024-01-27T02:48:29;6.72;;;0.35;;
68507;SDS011;55510;49.560;19.090;2024-01-27T02:51:29;3.63;;;0.53;;
68507;SDS011;55510;49.560;19.090;2024-01-27T02:54:30;6.70;;;1.00;;
68507;SDS011;55510;49.560;19.090;2024-01-27T02:57:30;6.03;;;0.40;;
68507;SDS011;55510;49.560;19.090;2024-01-27T03:00:31;3.83;;;0.23;;
68507;SDS011;55510;49.560;19.090;2024-01-27T03:03:32;5.90;;;0.63;;
68507;SDS011;55510;49.560;19.090;2024-01-27T03:06:33;3.70;;;0.38;;
68507;SDS011;55510;49.560;19.090;2024-01-27T03:09:33;3.83;;;0.53;;
68507;SDS011;55510;49.560;19.090;2024-01-27T03:12:34;5.67;;;0.53;;
68507;SDS011;55510;49.560;19.090;2024-01-27T03:15:35;6.20;;;0.40;;
68507;SDS011;55510;49.560;19.090;2024-01-27T03:18:38;2.78;;;0.30;;
68507;SDS011;55510;49.560;19.090;2024-01-27T03:21:38;5.70;;;1.03;;
68507;SDS011;55510;49.560;19.090;2024-01-27T03:24:39;4.85;;;0.45;;
68507;SDS011;55510;49.560;19.090;2024-01-27T03:27:40;5.17;;;0.50;;
68507;SDS011;55510;49.560;19.090;2024-01-27T03:30:40;5.70;;;0.40;;
68507;SDS011;55510;49.560;19.090;2024-01-27T03:33:41;7.85;;;0.75;;
68507;SDS011;55510;49.560;19.090;2024-01-27T03:36:42;9.50;;;0.60;;
68507;SDS011;55510;49.560;19.090;2024-01-27T03:39:42;4.00;;;0.33;;
68507;SDS011;55510;49.560;19.090;2024-01-27T03:42:43;2.70;;;0.20;;
68507;SDS011;55510;49.560;19.090;2024-01-27T03:45:44;6.10;;;0.30;;
68507;SDS011;55510;49.560;19.090;2024-01-27T03:48:46;4.15;;;0.40;;
68507;SDS011;55510;49.560;19.090;2024-01-27T03:51:46;7.22;;;0.60;;
68507;SDS011;55510;49.560;19.090;2024-01-27T03:54:47;4.72;;;0.35;;
68507;SDS011;55510;49.560;19.090;2024-01-27T03:57:48;5.37;;;0.57;;
68507;SDS011;55510;49.560;19.090;2024-01-27T04:00:48;6.47;;;0.60;;
68507;SDS011;55510;49.560;19.090;2024-01-27T04:03:49;6.55;;;0.73;;
68507;SDS011;55510;49.560;19.090;2024-01-27T04:06:50;8.73;;;0.70;;
68507;SDS011;55510;49.560;19.090;2024-01-27T04:09:50;7.38;;;1.15;;
68507;SDS011;55510;49.560;19.090;2024-01-27T04:12:51;10.20;;;1.87;;
68507;SDS011;55510;49.560;19.090;2024-01-27T04:15:52;5.30;;;1.07;;
68507;SDS011;55510;49.560;19.090;2024-01-27T04:18:54;6.05;;;0.90;;
68507;SDS011;55510;49.560;19.090;2024-01-27T04:21:54;7.73;;;1.00;;
68507;SDS011;55510;49.560;19.090;2024-01-27T04:24:55;8.35;;;1.10;;
68507;SDS011;55510;49.560;19.090;2024-01-27T04:27:56;6.87;;;0.80;;
68507;SDS011;55510;49.560;19.090;2024-01-27T04:30:56;10.32;;;1.15;;
68507;SDS011;55510;49.560;19.090;2024-01-27T04:33:57;3.80;;;0.60;;
68507;SDS011;55510;49.560;19.090;2024-01-27T04:36:58;10.30;;;1.05;;
68507;SDS011;55510;49.560;19.090;2024-01-27T04:39:59;6.97;;;0.57;;
68507;SDS011;55510;49.560;19.090;2024-01-27T04:43:00;8.43;;;0.85;;
68507;SDS011;55510;49.560;19.090;2024-01-27T04:46:00;5.63;;;0.40;;
68507;SDS011;55510;49.560;19.090;2024-01-27T04:49:01;9.20;;;0.80;;
68507;SDS011;55510;49.560;19.090;2024-01-27T04:52:02;12.67;;;0.67;;
68507;SDS011;55510;49.560;19.090;2024-01-27T04:55:03;6.63;;;0.40;;
68507;SDS011;55510;49.560;19.090;2024-01-27T04:58:04;5.67;;;0.50;;
68507;SDS011;55510;49.560;19.090;2024-01-27T05:01:08;10.23;;;0.82;;
68507;SDS011;55510;49.560;19.090;2024-01-27T05:04:08;8.40;;;1.70;;
68507;SDS011;55510;49.560;19.090;2024-01-27T05:07:09;10.43;;;0.82;;
68507;SDS011;55510;49.560;19.090;2024-01-27T05:10:10;7.87;;;0.70;;
68507;SDS011;55510;49.560;19.090;2024-01-27T05:13:12;8.43;;;0.65;;
68507;SDS011;55510;49.560;19.090;2024-01-27T05:16:12;6.97;;;0.90;;
68507;SDS011;55510;49.560;19.090;2024-01-27T05:19:13;7.22;;;0.30;;
68507;SDS011;55510;49.560;19.090;2024-01-27T05:22:13;9.30;;;0.90;;
68507;SDS011;55510;49.560;19.090;2024-01-27T05:25:14;7.10;;;0.60;;
68507;SDS011;55510;49.560;19.090;2024-01-27T05:28:16;6.80;;;0.80;;
68507;SDS011;55510;49.560;19.090;2024-01-27T05:31:18;9.48;;;0.65;;
68507;SDS011;55510;49.560;19.090;2024-01-27T05:34:18;6.10;;;0.47;;
68507;SDS011;55510;49.560;19.090;2024-01-27T05:37:19;3.38;;;0.55;;
68507;SDS011;55510;49.560;19.090;2024-01-27T05:40:20;5.33;;;0.47;;
68507;SDS011;55510;49.560;19.090;2024-01-27T05:43:20;4.67;;;0.20;;
68507;SDS011;55510;49.560;19.090;2024-01-27T05:46:21;5.80;;;0.70;;
68507;SDS011;55510;49.560;19.090;2024-01-27T05:49:22;5.30;;;0.60;;
68507;SDS011;55510;49.560;19.090;2024-01-27T05:52:22;9.60;;;0.70;;
68507;SDS011;55510;49.560;19.090;2024-01-27T05:55:25;5.88;;;0.93;;
68507;SDS011;55510;49.560;19.090;2024-01-27T05:58:26;8.43;;;1.40;;
68507;SDS011;55510;49.560;19.090;2024-01-27T06:04:01;5.38;;;0.20;;
68507;SDS011;55510;49.560;19.090;2024-01-27T06:07:02;11.73;;;1.50;;
68507;SDS011;55510;49.560;19.090;2024-01-27T06:10:03;7.67;;;1.00;;
68507;SDS011;55510;49.560;19.090;2024-01-27T06:13:04;10.25;;;1.45;;
68507;SDS011;55510;49.560;19.090;2024-01-27T06:16:08;6.13;;;0.55;;
68507;SDS011;55510;49.560;19.090;2024-01-27T06:19:09;8.30;;;0.87;;
68507;SDS011;55510;49.560;19.090;2024-01-27T06:22:10;12.07;;;1.40;;
68507;SDS011;55510;49.560;19.090;2024-01-27T06:25:13;8.47;;;0.97;;
68507;SDS011;55510;49.560;19.090;2024-01-27T06:28:14;11.70;;;2.17;;
68507;SDS011;55510;49.560;19.090;2024-01-27T06:31:15;13.90;;;2.17;;
68507;SDS011;55510;49.560;19.090;2024-01-27T06:34:16;6.47;;;0.80;;
68507;SDS011;55510;49.560;19.090;2024-01-27T06:37:17;6.70;;;0.88;;
68507;SDS011;55510;49.560;19.090;2024-01-27T06:40:17;8.37;;;1.57;;
68507;SDS011;55510;49.560;19.090;2024-01-27T06:43:19;8.38;;;1.42;;
68507;SDS011;55510;49.560;19.090;2024-01-27T06:46:19;9.27;;;0.90;;
68507;SDS011;55510;49.560;19.090;2024-01-27T06:49:20;10.47;;;1.00;;
68507;SDS011;55510;49.560;19.090;2024-01-27T06:52:20;12.43;;;1.60;;
68507;SDS011;55510;49.560;19.090;2024-01-27T06:55:21;8.02;;;1.50;;
68507;SDS011;55510;49.560;19.090;2024-01-27T06:58:22;8.43;;;1.60;;
68507;SDS011;55510;49.560;19.090;2024-01-27T07:01:23;7.30;;;1.45;;
68507;SDS011;55510;49.560;19.090;2024-01-27T07:04:23;8.57;;;1.17;;
68507;SDS011;55510;49.560;19.090;2024-01-27T07:07:25;7.30;;;0.75;;
68507;SDS011;55510;49.560;19.090;2024-01-27T07:10:27;6.93;;;1.13;;
68507;SDS011;55510;49.560;19.090;2024-01-27T07:13:27;7.00;;;0.82;;
68507;SDS011;55510;49.560;19.090;2024-01-27T07:16:30;13.38;;;3.22;;
68507;SDS011;55510;49.560;19.090;2024-01-27T07:19:32;10.43;;;1.77;;
68507;SDS011;55510;49.560;19.090;2024-01-27T07:22:33;14.02;;;2.58;;
68507;SDS011;55510;49.560;19.090;2024-01-27T07:25:34;14.47;;;2.90;;
68507;SDS011;55510;49.560;19.090;2024-01-27T07:28:34;14.23;;;3.53;;
68507;SDS011;55510;49.560;19.090;2024-01-27T07:31:35;9.23;;;1.33;;
68507;SDS011;55510;49.560;19.090;2024-01-27T07:34:37;13.80;;;1.90;;
68507;SDS011;55510;49.560;19.090;2024-01-27T07:37:37;10.60;;;2.15;;
68507;SDS011;55510;49.560;19.090;2024-01-27T07:40:38;32.33;;;7.00;;
68507;SDS011;55510;49.560;19.090;2024-01-27T07:43:39;14.32;;;2.72;;
68507;SDS011;55510;49.560;19.090;2024-01-27T07:46:40;21.30;;;3.80;;
68507;SDS011;55510;49.560;19.090;2024-01-27T07:49:42;7.07;;;1.73;;
68507;SDS011;55510;49.560;19.090;2024-01-27T07:52:43;8.23;;;1.52;;
68507;SDS011;55510;49.560;19.090;2024-01-27T07:55:44;9.88;;;0.80;;
68507;SDS011;55510;49.560;19.090;2024-01-27T07:58:44;10.03;;;1.10;;
68507;SDS011;55510;49.560;19.090;2024-01-27T08:01:45;6.57;;;1.00;;
68507;SDS011;55510;49.560;19.090;2024-01-27T08:04:46;6.67;;;1.10;;
68507;SDS011;55510;49.560;19.090;2024-01-27T08:07:47;12.07;;;1.83;;
68507;SDS011;55510;49.560;19.090;2024-01-27T08:10:47;8.17;;;1.27;;
68507;SDS011;55510;49.560;19.090;2024-01-27T08:13:48;13.50;;;2.03;;
68507;SDS011;55510;49.560;19.090;2024-01-27T08:16:49;15.03;;;2.40;;
68507;SDS011;55510;49.560;19.090;2024-01-27T08:19:50;28.10;;;6.95;;
68507;SDS011;55510;49.560;19.090;2024-01-27T08:22:51;13.23;;;1.93;;
68507;SDS011;55510;49.560;19.090;2024-01-27T08:25:52;16.20;;;3.33;;
68507;SDS011;55510;49.560;19.090;2024-01-27T08:28:52;11.67;;;2.27;;
68507;SDS011;55510;49.560;19.090;2024-01-27T08:31:56;14.75;;;4.20;;
68507;SDS011;55510;49.560;19.090;2024-01-27T08:34:57;16.80;;;3.67;;
68507;SDS011;55510;49.560;19.090;2024-01-27T08:37:58;10.53;;;2.43;;
68507;SDS011;55510;49.560;19.090;2024-01-27T08:40:58;9.13;;;2.03;;
68507;SDS011;55510;49.560;19.090;2024-01-27T08:43:59;11.57;;;3.30;;
68507;SDS011;55510;49.560;19.090;2024-01-27T08:47:00;11.93;;;2.80;;
68507;SDS011;55510;49.560;19.090;2024-01-27T08:50:00;10.88;;;2.00;;
68507;SDS011;55510;49.560;19.090;2024-01-27T08:53:01;9.03;;;1.70;;
68507;SDS011;55510;49.560;19.090;2024-01-27T08:56:02;20.40;;;4.97;;
68507;SDS011;55510;49.560;19.090;2024-01-27T08:59:03;20.92;;;5.13;;
68507;SDS011;55510;49.560;19.090;2024-01-27T09:02:03;11.40;;;1.60;;
68507;SDS011;55510;49.560;19.090;2024-01-27T09:05:05;15.60;;;5.13;;
68507;SDS011;55510;49.560;19.090;2024-01-27T09:08:06;8.02;;;1.63;;
68507;SDS011;55510;49.560;19.090;2024-01-27T09:11:08;8.67;;;2.50;;
68507;SDS011;55510;49.560;19.090;2024-01-27T09:14:09;9.97;;;1.20;;
68507;SDS011;55510;49.560;19.090;2024-01-27T09:17:10;7.53;;;1.00;;
68507;SDS011;55510;49.560;19.090;2024-01-27T09:20:13;7.47;;;0.97;;
68507;SDS011;55510;49.560;19.090;2024-01-27T09:23:13;8.00;;;1.40;;
68507;SDS011;55510;49.560;19.090;2024-01-27T09:26:14;9.77;;;1.27;;
68507;SDS011;55510;49.560;19.090;2024-01-27T09:29:18;9.23;;;1.03;;
68507;SDS011;55510;49.560;19.090;2024-01-27T09:32:20;13.18;;;1.23;;
68507;SDS011;55510;49.560;19.090;2024-01-27T09:35:21;7.23;;;0.93;;
68507;SDS011;55510;49.560;19.090;2024-01-27T09:38:22;8.35;;;1.05;;
68507;SDS011;55510;49.560;19.090;2024-01-27T09:41:23;7.57;;;1.27;;
68507;SDS011;55510;49.560;19.090;2024-01-27T09:44:24;8.27;;;1.83;;
68507;SDS011;55510;49.560;19.090;2024-01-27T09:47:27;10.33;;;1.63;;
68507;SDS011;55510;49.560;19.090;2024-01-27T09:50:28;6.35;;;1.05;;
68507;SDS011;55510;49.560;19.090;2024-01-27T09:53:29;10.82;;;1.17;;
68507;SDS011;55510;49.560;19.090;2024-01-27T09:56:30;8.40;;;1.53;;
68507;SDS011;55510;49.560;19.090;2024-01-27T09:59:32;9.93;;;2.38;;
68507;SDS011;55510;49.560;19.090;2024-01-27T10:02:34;20.90;;;4.78;;
68507;SDS011;55510;49.560;19.090;2024-01-27T10:05:35;21.83;;;5.70;;
68507;SDS011;55510;49.560;19.090;2024-01-27T10:08:37;40.33;;;14.83;;
68507;SDS011;55510;49.560;19.090;2024-01-27T10:11:37;11.03;;;3.50;;
68507;SDS011;55510;49.560;19.090;2024-01-27T10:14:42;12.32;;;3.80;;
68507;SDS011;55510;49.560;19.090;2024-01-27T10:17:49;21.00;;;8.20;;
68507;SDS011;55510;49.560;19.090;2024-01-27T10:20:50;34.97;;;10.20;;
68507;SDS011;55510;49.560;19.090;2024-01-27T10:23:51;7.88;;;1.63;;
68507;SDS011;55510;49.560;19.090;2024-01-27T10:26:58;31.80;;;6.25;;
68507;SDS011;55510;49.560;19.090;2024-01-27T10:30:00;92.32;;;22.02;;
68507;SDS011;55510;49.560;19.090;2024-01-27T10:33:01;34.23;;;9.90;;
68507;SDS011;55510;49.560;19.090;2024-01-27T10:36:02;22.35;;;5.20;;
68507;SDS011;55510;49.560;19.090;2024-01-27T10:39:18;16.73;;;4.82;;
68507;SDS011;55510;49.560;19.090;2024-01-27T10:42:22;21.75;;;7.80;;
68507;SDS011;55510;49.560;19.090;2024-01-27T10:45:23;11.65;;;3.67;;
68507;SDS011;55510;49.560;19.090;2024-01-27T10:48:25;23.27;;;6.43;;
68507;SDS011;55510;49.560;19.090;2024-01-27T10:51:31;13.02;;;3.42;;
68507;SDS011;55510;49.560;19.090;2024-01-27T10:54:36;20.90;;;8.40;;
68507;SDS011;55510;49.560;19.090;2024-01-27T10:57:38;20.02;;;7.43;;
68507;SDS011;55510;49.560;19.090;2024-01-27T11:00:41;9.85;;;3.30;;
68507;SDS011;55510;49.560;19.090;2024-01-27T11:03:44;11.60;;;2.03;;
68507;SDS011;55510;49.560;19.090;2024-01-27T11:06:44;24.52;;;6.28;;
68507;SDS011;55510;49.560;19.090;2024-01-27T11:09:48;11.90;;;3.58;;
68507;SDS011;55510;49.560;19.090;2024-01-27T11:12:52;39.72;;;10.88;;
68507;SDS011;55510;49.560;19.090;2024-01-27T11:15:55;28.90;;;7.63;;
68507;SDS011;55510;49.560;19.090;2024-01-27T11:18:58;39.17;;;13.50;;
68507;SDS011;55510;49.560;19.090;2024-01-27T11:22:02;17.17;;;7.97;;
68507;SDS011;55510;49.560;19.090;2024-01-27T11:28:16;11.03;;;4.00;;
68507;SDS011;55510;49.560;19.090;2024-01-27T11:31:17;9.40;;;2.50;;
68507;SDS011;55510;49.560;19.090;2024-01-27T11:34:19;9.20;;;2.53;;
68507;SDS011;55510;49.560;19.090;2024-01-27T11:37:20;13.77;;;5.90;;
68507;SDS011;55510;49.560;19.090;2024-01-27T11:40:25;18.08;;;7.00;;
68507;SDS011;55510;49.560;19.090;2024-01-27T11:43:25;19.23;;;7.53;;
68507;SDS011;55510;49.560;19.090;2024-01-27T11:46:26;20.13;;;7.43;;
68507;SDS011;55510;49.560;19.090;2024-01-27T11:49:27;29.98;;;12.50;;
68507;SDS011;55510;49.560;19.090;2024-01-27T11:52:28;17.23;;;5.27;;
68507;SDS011;55510;49.560;19.090;2024-01-27T11:55:29;21.17;;;7.60;;
68507;SDS011;55510;49.560;19.090;2024-01-27T11:58:30;11.97;;;3.50;;
68507;SDS011;55510;49.560;19.090;2024-01-27T12:01:33;10.90;;;2.10;;
68507;SDS011;55510;49.560;19.090;2024-01-27T12:04:34;7.93;;;1.63;;
68507;SDS011;55510;49.560;19.090;2024-01-27T12:07:35;7.53;;;2.00;;
68507;SDS011;55510;49.560;19.090;2024-01-27T12:10:36;11.73;;;2.45;;
68507;SDS011;55510;49.560;19.090;2024-01-27T12:13:37;6.07;;;1.40;;
68507;SDS011;55510;49.560;19.090;2024-01-27T12:16:38;11.60;;;3.40;;
68507;SDS011;55510;49.560;19.090;2024-01-27T12:19:39;8.07;;;1.38;;
68507;SDS011;55510;49.560;19.090;2024-01-27T12:22:45;8.52;;;4.10;;
68507;SDS011;55510;49.560;19.090;2024-01-27T12:25:52;11.73;;;4.67;;
68507;SDS011;55510;49.560;19.090;2024-01-27T12:28:59;13.73;;;4.68;;
68507;SDS011;55510;49.560;19.090;2024-01-27T12:32:00;16.27;;;6.13;;
68507;SDS011;55510;49.560;19.090;2024-01-27T12:35:04;27.40;;;9.40;;
68507;SDS011;55510;49.560;19.090;2024-01-27T12:38:06;17.55;;;7.78;;
68507;SDS011;55510;49.560;19.090;2024-01-27T12:41:06;22.15;;;9.95;;
68507;SDS011;55510;49.560;19.090;2024-01-27T12:44:07;13.43;;;5.77;;
68507;SDS011;55510;49.560;19.090;2024-01-27T12:47:11;16.58;;;5.03;;
68507;SDS011;55510;49.560;19.090;2024-01-27T12:50:12;29.20;;;10.45;;
68507;SDS011;55510;49.560;19.090;2024-01-27T12:53:12;25.00;;;9.13;;
68507;SDS011;55510;49.560;19.090;2024-01-27T12:56:13;16.60;;;4.35;;
68507;SDS011;55510;49.560;19.090;2024-01-27T12:59:15;23.83;;;9.67;;
68507;SDS011;55510;49.560;19.090;2024-01-27T13:02:16;22.23;;;9.63;;
68507;SDS011;55510;49.560;19.090;2024-01-27T13:05:17;20.75;;;6.82;;
68507;SDS011;55510;49.560;19.090;2024-01-27T13:08:18;17.90;;;7.10;;
68507;SDS011;55510;49.560;19.090;2024-01-27T13:11:19;17.52;;;6.90;;
68507;SDS011;55510;49.560;19.090;2024-01-27T13:14:20;30.53;;;12.63;;
68507;SDS011;55510;49.560;19.090;2024-01-27T13:17:21;32.72;;;14.50;;
68507;SDS011;55510;49.560;19.090;2024-01-27T13:20:22;29.23;;;12.17;;
68507;SDS011;55510;49.560;19.090;2024-01-27T13:23:22;31.23;;;13.52;;
68507;SDS011;55510;49.560;19.090;2024-01-27T13:26:23;35.17;;;14.73;;
68507;SDS011;55510;49.560;19.090;2024-01-27T13:29:24;42.10;;;17.83;;
68507;SDS011;55510;49.560;19.090;2024-01-27T13:32:26;54.38;;;22.30;;
68507;SDS011;55510;49.560;19.090;2024-01-27T13:35:27;58.77;;;23.70;;
68507;SDS011;55510;49.560;19.090;2024-01-27T13:38:27;54.45;;;22.65;;
68507;SDS011;55510;49.560;19.090;2024-01-27T13:41:28;35.77;;;17.33;;
68507;SDS011;55510;49.560;19.090;2024-01-27T13:44:29;45.27;;;17.00;;
68507;SDS011;55510;49.560;19.090;2024-01-27T13:47:30;35.97;;;13.55;;
68507;SDS011;55510;49.560;19.090;2024-01-27T13:50:31;38.77;;;16.80;;
68507;SDS011;55510;49.560;19.090;2024-01-27T13:53:32;22.23;;;9.18;;
68507;SDS011;55510;49.560;19.090;2024-01-27T13:56:32;24.03;;;9.47;;
68507;SDS011;55510;49.560;19.090;2024-01-27T13:59:33;31.17;;;14.95;;
68507;SDS011;55510;49.560;19.090;2024-01-27T14:02:34;34.80;;;16.17;;
68507;SDS011;55510;49.560;19.090;2024-01-27T14:05:35;27.05;;;11.80;;
68507;SDS011;55510;49.560;19.090;2024-01-27T14:08:35;21.73;;;9.97;;
68507;SDS011;55510;49.560;19.090;2024-01-27T14:11:36;30.95;;;12.95;;
68507;SDS011;55510;49.560;19.090;2024-01-27T14:14:36;27.43;;;13.80;;
68507;SDS011;55510;49.560;19.090;2024-01-27T14:17:40;46.42;;;18.63;;
68507;SDS011;55510;49.560;19.090;2024-01-27T14:20:41;30.87;;;14.23;;
68507;SDS011;55510;49.560;19.090;2024-01-27T14:23:43;28.40;;;13.70;;
68507;SDS011;55510;49.560;19.090;2024-01-27T14:26:43;38.60;;;13.48;;
68507;SDS011;55510;49.560;19.090;2024-01-27T14:29:44;38.90;;;18.27;;
68507;SDS011;55510;49.560;19.090;2024-01-27T14:32:45;39.45;;;17.85;;
68507;SDS011;55510;49.560;19.090;2024-01-27T14:35:46;44.77;;;19.67;;
68507;SDS011;55510;49.560;19.090;2024-01-27T14:38:48;46.65;;;21.17;;
68507;SDS011;55510;49.560;19.090;2024-01-27T14:41:49;42.97;;;19.85;;
68507;SDS011;55510;49.560;19.090;2024-01-27T14:44:50;52.77;;;21.23;;
68507;SDS011;55510;49.560;19.090;2024-01-27T14:47:53;43.78;;;20.10;;
68507;SDS011;55510;49.560;19.090;2024-01-27T14:50:54;41.28;;;17.63;;
68507;SDS011;55510;49.560;19.090;2024-01-27T14:53:59;49.25;;;19.25;;
68507;SDS011;55510;49.560;19.090;2024-01-27T14:57:06;50.27;;;20.70;;
68507;SDS011;55510;49.560;19.090;2024-01-27T15:00:10;45.27;;;20.17;;
68507;SDS011;55510;49.560;19.090;2024-01-27T15:03:15;34.83;;;16.40;;
68507;SDS011;55510;49.560;19.090;2024-01-27T15:06:16;26.80;;;13.43;;
68507;SDS011;55510;49.560;19.090;2024-01-27T15:09:17;35.15;;;16.52;;
68507;SDS011;55510;49.560;19.090;2024-01-27T15:12:18;48.80;;;19.13;;
68507;SDS011;55510;49.560;19.090;2024-01-27T15:15:18;51.72;;;20.45;;
68507;SDS011;55510;49.560;19.090;2024-01-27T15:18:19;44.57;;;18.87;;
68507;SDS011;55510;49.560;19.090;2024-01-27T15:21:22;46.50;;;18.23;;
68507;SDS011;55510;49.560;19.090;2024-01-27T15:24:22;68.53;;;25.73;;
68507;SDS011;55510;49.560;19.090;2024-01-27T15:27:23;117.85;;;48.20;;
68507;SDS011;55510;49.560;19.090;2024-01-27T15:30:24;139.83;;;57.83;;
68507;SDS011;55510;49.560;19.090;2024-01-27T15:33:25;148.98;;;63.97;;
68507;SDS011;55510;49.560;19.090;2024-01-27T15:36:25;129.80;;;56.40;;
68507;SDS011;55510;49.560;19.090;2024-01-27T15:39:26;184.80;;;81.00;;
68507;SDS011;55510;49.560;19.090;2024-01-27T15:42:26;213.30;;;94.40;;
68507;SDS011;55510;49.560;19.090;2024-01-27T15:45:28;165.00;;;69.10;;
68507;SDS011;55510;49.560;19.090;2024-01-27T15:48:28;74.20;;;29.97;;
68507;SDS011;55510;49.560;19.090;2024-01-27T15:51:29;159.30;;;39.30;;
68507;SDS011;55510;49.560;19.090;2024-01-27T15:54:30;96.33;;;30.00;;
68507;SDS011;55510;49.560;19.090;2024-01-27T15:57:31;40.55;;;15.73;;
68507;SDS011;55510;49.560;19.090;2024-01-27T16:00:32;58.30;;;19.57;;
68507;SDS011;55510;49.560;19.090;2024-01-27T16:03:35;35.72;;;10.98;;
68507;SDS011;55510;49.560;19.090;2024-01-27T16:06:36;48.15;;;15.63;;
68507;SDS011;55510;49.560;19.090;2024-01-27T16:09:37;58.13;;;19.50;;
68507;SDS011;55510;49.560;19.090;2024-01-27T16:12:40;69.90;;;20.63;;
68507;SDS011;55510;49.560;19.090;2024-01-27T16:15:42;105.13;;;29.67;;
68507;SDS011;55510;49.560;19.090;2024-01-27T16:18:44;47.92;;;14.30;;
68507;SDS011;55510;49.560;19.090;2024-01-27T16:21:45;31.33;;;8.50;;
68507;SDS011;55510;49.560;19.090;2024-01-27T16:24:45;26.90;;;9.27;;
68507;SDS011;55510;49.560;19.090;2024-01-27T16:27:46;83.40;;;35.90;;
68507;SDS011;55510;49.560;19.090;2024-01-27T16:30:47;89.32;;;33.63;;
68507;SDS011;55510;49.560;19.090;2024-01-27T16:33:48;53.63;;;17.77;;
68507;SDS011;55510;49.560;19.090;2024-01-27T16:36:50;79.00;;;24.52;;
68507;SDS011;55510;49.560;19.090;2024-01-27T16:39:51;33.08;;;14.43;;
68507;SDS011;55510;49.560;19.090;2024-01-27T16:42:51;251.67;;;66.43;;
68507;SDS011;55510;49.560;19.090;2024-01-27T16:45:52;64.90;;;25.13;;
68507;SDS011;55510;49.560;19.090;2024-01-27T16:48:53;60.40;;;18.00;;
68507;SDS011;55510;49.560;19.090;2024-01-27T16:51:54;65.05;;;25.58;;
68507;SDS011;55510;49.560;19.090;2024-01-27T16:54:57;61.42;;;15.93;;
68507;SDS011;55510;49.560;19.090;2024-01-27T16:57:58;202.27;;;53.93;;
68507;SDS011;55510;49.560;19.090;2024-01-27T17:00:58;130.97;;;37.90;;
68507;SDS011;55510;49.560;19.090;2024-01-27T17:03:59;64.60;;;17.80;;
68507;SDS011;55510;49.560;19.090;2024-01-27T17:07:00;34.28;;;11.50;;
68507;SDS011;55510;49.560;19.090;2024-01-27T17:10:01;59.73;;;17.97;;
68507;SDS011;55510;49.560;19.090;2024-01-27T17:13:04;34.45;;;12.20;;
68507;SDS011;55510;49.560;19.090;2024-01-27T17:16:05;50.67;;;17.45;;
68507;SDS011;55510;49.560;19.090;2024-01-27T17:19:06;54.13;;;22.20;;
68507;SDS011;55510;49.560;19.090;2024-01-27T17:22:07;42.65;;;15.38;;
68507;SDS011;55510;49.560;19.090;2024-01-27T17:25:07;58.50;;;24.67;;
68507;SDS011;55510;49.560;19.090;2024-01-27T17:28:09;44.30;;;19.73;;
68507;SDS011;55510;49.560;19.090;2024-01-27T17:31:10;45.30;;;14.80;;
68507;SDS011;55510;49.560;19.090;2024-01-27T17:34:12;26.35;;;7.93;;
68507;SDS011;55510;49.560;19.090;2024-01-27T17:37:15;18.27;;;8.30;;
68507;SDS011;55510;49.560;19.090;2024-01-27T17:40:15;18.10;;;5.87;;
68507;SDS011;55510;49.560;19.090;2024-01-27T17:43:16;15.00;;;5.45;;
68507;SDS011;55510;49.560;19.090;2024-01-27T17:46:17;19.48;;;7.22;;
68507;SDS011;55510;49.560;19.090;2024-01-27T17:49:17;17.70;;;6.27;;
68507;SDS011;55510;49.560;19.090;2024-01-27T17:52:23;18.63;;;6.00;;
68507;SDS011;55510;49.560;19.090;2024-01-27T17:55:24;27.17;;;8.00;;
68507;SDS011;55510;49.560;19.090;2024-01-27T17:58:25;30.23;;;8.48;;
68507;SDS011;55510;49.560;19.090;2024-01-27T18:01:25;31.07;;;9.37;;
68507;SDS011;55510;49.560;19.090;2024-01-27T18:04:26;23.38;;;10.38;;
68507;SDS011;55510;49.560;19.090;2024-01-27T18:07:27;36.78;;;13.50;;
68507;SDS011;55510;49.560;19.090;2024-01-27T18:10:28;36.40;;;12.07;;
68507;SDS011;55510;49.560;19.090;2024-01-27T18:13:29;66.07;;;22.45;;
68507;SDS011;55510;49.560;19.090;2024-01-27T18:16:30;65.27;;;25.07;;
68507;SDS011;55510;49.560;19.090;2024-01-27T18:19:30;98.38;;;32.35;;
68507;SDS011;55510;49.560;19.090;2024-01-27T18:22:31;137.60;;;47.13;;
68507;SDS011;55510;49.560;19.090;2024-01-27T18:25:32;108.00;;;41.17;;
68507;SDS011;55510;49.560;19.090;2024-01-27T18:28:33;67.07;;;23.60;;
68507;SDS011;55510;49.560;19.090;2024-01-27T18:31:33;58.47;;;19.92;;
68507;SDS011;55510;49.560;19.090;2024-01-27T18:34:35;57.27;;;16.67;;
68507;SDS011;55510;49.560;19.090;2024-01-27T18:37:36;87.87;;;22.77;;
68507;SDS011;55510;49.560;19.090;2024-01-27T18:40:37;29.13;;;9.50;;
68507;SDS011;55510;49.560;19.090;2024-01-27T18:43:40;20.85;;;5.32;;
68507;SDS011;55510;49.560;19.090;2024-01-27T18:46:41;27.20;;;8.65;;
68507;SDS011;55510;49.560;19.090;2024-01-27T18:49:41;23.43;;;7.40;;
68507;SDS011;55510;49.560;19.090;2024-01-27T18:52:42;19.48;;;6.93;;
68507;SDS011;55510;49.560;19.090;2024-01-27T18:55:43;27.63;;;7.73;;
68507;SDS011;55510;49.560;19.090;2024-01-27T18:58:45;24.98;;;7.18;;
68507;SDS011;55510;49.560;19.090;2024-01-27T19:01:46;32.87;;;9.47;;
68507;SDS011;55510;49.560;19.090;2024-01-27T19:04:47;32.08;;;10.88;;
68507;SDS011;55510;49.560;19.090;2024-01-27T19:07:47;41.17;;;12.60;;
68507;SDS011;55510;49.560;19.090;2024-01-27T19:10:50;43.22;;;15.57;;
68507;SDS011;55510;49.560;19.090;2024-01-27T19:13:50;82.00;;;26.03;;
68507;SDS011;55510;49.560;19.090;2024-01-27T19:16:51;152.98;;;38.58;;
68507;SDS011;55510;49.560;19.090;2024-01-27T19:19:52;42.20;;;13.40;;
68507;SDS011;55510;49.560;19.090;2024-01-27T19:22:53;22.77;;;6.45;;